Time;durP1;ratioP1;P1;durP2;ratioP2;P2;SDS_P1;SDS_P2;PMS_P1;PMS_P2;Temp;Humidity;BMP_temperature;BMP_pressure;BME280_temperature;BME280_humidity;BME280_pressure;Samples;Min_cycle;Max_cycle;Signal;HPM_P1;HPM_P2
2022/12/03 00:02:08;;;;;;;23.92;15.43;;;4.70;99.90;;;;;;5020212;28;20038;-77
2022/12/03 00:04:34;;;;;;;21.67;14.55;;;4.50;99.90;;;;;;5026859;28;20053;-77
2022/12/03 00:07:00;;;;;;;24.63;17.33;;;4.50;99.90;;;;;;5021949;28;20044;-77
2022/12/03 00:09:25;;;;;;;22.20;16.15;;;4.50;99.90;;;;;;5024181;28;20122;-77
2022/12/03 00:11:51;;;;;;;24.27;14.65;;;4.60;99.90;;;;;;5018348;28;20080;-78
2022/12/03 00:14:17;;;;;;;22.90;14.70;;;4.60;99.90;;;;;;5013913;28;20076;-77
2022/12/03 00:16:42;;;;;;;21.88;13.75;;;5.40;99.90;;;;;;5009803;28;20486;-77
2022/12/03 00:19:08;;;;;;;22.40;13.65;;;4.60;99.90;;;;;;5014673;28;21344;-77
2022/12/03 00:21:34;;;;;;;22.23;15.32;;;4.60;99.90;;;;;;5016321;28;20265;-77
2022/12/03 00:23:59;;;;;;;20.23;14.05;;;4.60;99.90;;;;;;5014380;28;20057;-77
2022/12/03 00:26:25;;;;;;;21.52;13.60;;;5.00;99.90;;;;;;5013032;28;20054;-77
2022/12/03 00:28:51;;;;;;;23.27;13.52;;;5.40;99.90;;;;;;5017744;28;20037;-77
2022/12/03 00:31:17;;;;;;;23.30;13.45;;;4.60;99.90;;;;;;5020685;28;20098;-77
2022/12/03 00:33:43;;;;;;;22.20;14.50;;;4.70;99.90;;;;;;5016766;28;20130;-77
2022/12/03 00:36:08;;;;;;;23.13;13.30;;;4.80;99.90;;;;;;5014601;28;20091;-77
2022/12/03 00:38:34;;;;;;;17.75;12.00;;;4.80;99.90;;;;;;5016723;28;20046;-77
2022/12/03 00:41:00;;;;;;;21.10;13.05;;;4.90;99.90;;;;;;5017375;28;20041;-78
2022/12/03 00:43:25;;;;;;;21.42;12.15;;;5.20;99.90;;;;;;5018753;28;20270;-76
2022/12/03 00:45:51;;;;;;;21.08;14.25;;;5.00;99.90;;;;;;5007635;28;20049;-77
2022/12/03 00:48:17;;;;;;;18.05;11.35;;;4.80;99.90;;;;;;5014084;28;20057;-77
2022/12/03 00:50:42;;;;;;;16.63;11.85;;;5.10;99.90;;;;;;5018094;28;20129;-77
2022/12/03 00:53:08;;;;;;;19.17;12.95;;;4.80;99.90;;;;;;5013523;28;20085;-77
2022/12/03 00:55:33;;;;;;;17.88;12.77;;;4.80;99.90;;;;;;5014756;28;20085;-79
2022/12/03 00:57:59;;;;;;;20.15;13.00;;;4.80;99.90;;;;;;5016352;28;20049;-77
2022/12/03 01:00:25;;;;;;;19.85;13.02;;;4.80;99.90;;;;;;5014327;28;20041;-77
2022/12/03 01:02:51;;;;;;;20.05;13.30;;;4.70;99.90;;;;;;5019812;28;20056;-78
2022/12/03 01:05:19;;;;;;;22.98;13.60;;;4.80;99.90;;;;;;5011970;28;20045;-78
2022/12/03 01:07:46;;;;;;;21.33;13.32;;;4.80;99.90;;;;;;5003277;28;20044;-77
2022/12/03 01:10:13;;;;;;;20.83;13.48;;;4.80;99.90;;;;;;5015523;28;20099;-79
2022/12/03 01:12:39;;;;;;;22.33;13.50;;;4.80;99.90;;;;;;5015732;28;20049;-78
2022/12/03 01:15:06;;;;;;;17.92;12.90;;;4.80;99.90;;;;;;5017295;28;20820;-77
2022/12/03 01:17:32;;;;;;;22.17;13.95;;;4.80;99.90;;;;;;5017532;28;20497;-79
2022/12/03 01:19:58;;;;;;;18.75;12.80;;;4.70;99.90;;;;;;5025961;28;20144;-78
2022/12/03 01:22:24;;;;;;;21.13;13.93;;;5.00;99.90;;;;;;5022774;28;20061;-78
2022/12/03 01:24:50;;;;;;;18.58;13.50;;;4.80;99.90;;;;;;5023736;28;20076;-78
2022/12/03 01:27:15;;;;;;;21.83;12.98;;;4.70;99.90;;;;;;5020300;28;20760;-78
2022/12/03 01:29:41;;;;;;;19.48;12.52;;;4.60;99.90;;;;;;5018457;28;20056;-78
2022/12/03 01:32:18;;;;;;;22.95;14.88;;;5.30;99.90;;;;;;5023228;28;20053;-78
2022/12/03 01:34:49;;;;;;;21.98;13.60;;;4.60;99.90;;;;;;5017135;28;20057;-79
2022/12/03 01:37:16;;;;;;;18.38;12.77;;;5.20;99.90;;;;;;5020267;28;20087;-78
2022/12/03 01:39:43;;;;;;;21.60;13.05;;;4.40;99.90;;;;;;5023120;28;20045;-77
2022/12/03 01:42:15;;;;;;;18.80;12.90;;;4.40;99.90;;;;;;5018962;28;20041;-77
2022/12/03 01:44:41;;;;;;;17.63;12.55;;;4.40;99.90;;;;;;5019836;28;20057;-77
2022/12/03 01:47:12;;;;;;;20.20;12.98;;;4.30;99.90;;;;;;5018310;28;20382;-77
2022/12/03 01:50:00;;;;;;;24.33;14.90;;;4.30;99.90;;;;;;5016977;28;20049;-78
2022/12/03 01:52:30;;;;;;;24.02;13.88;;;4.30;99.90;;;;;;5016277;28;20057;-77
2022/12/03 01:54:58;;;;;;;21.95;13.77;;;4.30;99.90;;;;;;5017323;28;20398;-79
2022/12/03 01:57:34;;;;;;;20.17;14.68;;;4.40;99.90;;;;;;5018188;28;20049;-78
2022/12/03 02:00:01;;;;;;;20.80;13.40;;;4.70;99.90;;;;;;5019578;28;20052;-78
2022/12/03 02:02:31;;;;;;;21.02;13.85;;;4.60;99.90;;;;;;5018680;28;20045;-77
2022/12/03 02:04:57;;;;;;;20.50;13.75;;;4.30;99.90;;;;;;5023373;28;20252;-77
2022/12/03 02:07:29;;;;;;;18.15;13.00;;;4.30;99.90;;;;;;5012548;28;20049;-78
2022/12/03 02:09:57;;;;;;;19.85;14.73;;;4.40;99.90;;;;;;5018224;28;20052;-78
2022/12/03 02:12:46;;;;;;;24.00;14.48;;;4.70;99.90;;;;;;5019261;28;20486;-79
2022/12/03 02:15:12;;;;;;;22.95;16.17;;;4.40;99.90;;;;;;5019939;28;20052;-78
2022/12/03 02:17:38;;;;;;;20.42;15.23;;;4.40;99.90;;;;;;5020033;28;20126;-78
2022/12/03 02:20:07;;;;;;;22.33;14.00;;;4.40;99.90;;;;;;5018557;28;20057;-78
2022/12/03 02:22:44;;;;;;;20.52;14.98;;;4.40;99.90;;;;;;5018869;28;20056;-78
2022/12/03 02:25:31;;;;;;;22.27;14.88;;;4.40;99.90;;;;;;5017538;28;20057;-77
2022/12/03 02:27:58;;;;;;;24.05;14.90;;;4.50;99.90;;;;;;5017840;28;20576;-78
2022/12/03 02:30:25;;;;;;;20.58;12.30;;;5.10;99.90;;;;;;5024630;28;20229;-77
2022/12/03 02:32:53;;;;;;;21.42;14.52;;;4.50;99.90;;;;;;5019713;28;20049;-78
2022/12/03 02:35:21;;;;;;;18.60;12.38;;;5.30;99.90;;;;;;5015303;28;20171;-78
2022/12/03 02:37:50;;;;;;;20.25;14.77;;;4.50;99.90;;;;;;5021041;28;20417;-78
2022/12/03 02:40:22;;;;;;;19.98;13.27;;;4.70;99.90;;;;;;5019186;28;20827;-78
2022/12/03 02:42:49;;;;;;;20.42;14.85;;;4.50;99.90;;;;;;5017068;28;20065;-77
2022/12/03 02:45:25;;;;;;;21.92;13.85;;;4.50;99.90;;;;;;5011000;28;20115;-78
2022/12/03 02:48:05;;;;;;;21.73;15.13;;;4.50;99.90;;;;;;5017455;28;20099;-78
2022/12/03 02:50:38;;;;;;;20.33;14.70;;;4.40;99.90;;;;;;5016230;28;20477;-77
2022/12/03 02:53:10;;;;;;;20.20;14.63;;;4.50;99.90;;;;;;5017588;28;20049;-78
2022/12/03 02:55:37;;;;;;;28.60;16.88;;;4.50;99.90;;;;;;5022231;28;20127;-78
2022/12/03 02:58:04;;;;;;;23.27;15.85;;;4.90;99.90;;;;;;5015295;28;20386;-77
2022/12/03 03:00:31;;;;;;;22.98;14.98;;;4.50;99.90;;;;;;5013157;28;20053;-78
2022/12/03 03:02:57;;;;;;;21.30;14.55;;;4.40;99.90;;;;;;5016110;28;20072;-77
2022/12/03 03:05:23;;;;;;;24.33;15.07;;;4.50;99.90;;;;;;5016955;28;20049;-78
2022/12/03 03:07:50;;;;;;;24.48;15.32;;;5.10;99.90;;;;;;5013576;28;20033;-78
2022/12/03 03:10:20;;;;;;;20.05;14.18;;;4.50;99.90;;;;;;5017726;28;20109;-77
2022/12/03 03:12:46;;;;;;;20.40;14.77;;;4.50;99.90;;;;;;5020219;28;21188;-78
2022/12/03 03:15:12;;;;;;;22.70;15.60;;;4.50;99.90;;;;;;5013155;28;20057;-78
2022/12/03 03:17:40;;;;;;;24.13;16.23;;;4.70;99.90;;;;;;5009596;28;20054;-78
2022/12/03 03:20:08;;;;;;;19.45;13.45;;;4.50;99.90;;;;;;5022995;28;20568;-79
2022/12/03 03:22:36;;;;;;;21.60;14.52;;;4.40;99.90;;;;;;5014620;28;20060;-78
2022/12/03 03:25:02;;;;;;;19.98;15.20;;;4.50;99.90;;;;;;5014979;28;20311;-77
2022/12/03 03:27:28;;;;;;;21.40;14.95;;;4.50;99.90;;;;;;5007597;28;20065;-77
2022/12/03 03:29:57;;;;;;;20.90;14.38;;;4.40;99.90;;;;;;5015529;28;20437;-77
2022/12/03 03:32:23;;;;;;;21.42;14.15;;;4.50;99.90;;;;;;5012439;28;20057;-78
2022/12/03 03:34:49;;;;;;;23.75;15.43;;;4.50;99.90;;;;;;5009235;28;20048;-78
2022/12/03 03:37:15;;;;;;;23.20;15.50;;;4.50;99.90;;;;;;5016211;28;20057;-78
2022/12/03 03:39:41;;;;;;;21.17;14.40;;;4.80;99.90;;;;;;5013220;28;20046;-77
2022/12/03 03:42:06;;;;;;;22.45;14.02;;;4.50;99.90;;;;;;5007130;28;20688;-79
2022/12/03 03:44:32;;;;;;;23.33;15.13;;;4.50;99.90;;;;;;5016961;28;20052;-79
2022/12/03 03:46:58;;;;;;;20.98;15.68;;;4.40;99.90;;;;;;5016180;28;20096;-78
2022/12/03 03:49:24;;;;;;;22.38;15.55;;;5.10;99.90;;;;;;5023915;28;20086;-80
2022/12/03 03:51:50;;;;;;;24.10;14.27;;;4.50;99.90;;;;;;5012719;28;21523;-78
2022/12/03 03:54:16;;;;;;;24.45;15.43;;;5.30;99.90;;;;;;5015795;28;20042;-78
2022/12/03 03:56:42;;;;;;;23.33;16.23;;;4.50;99.90;;;;;;5015138;28;20053;-78
2022/12/03 03:59:08;;;;;;;21.40;14.30;;;4.30;99.90;;;;;;5001931;28;20940;-78
2022/12/03 04:01:33;;;;;;;19.13;14.05;;;5.20;99.90;;;;;;5013801;28;20129;-79
2022/12/03 04:03:59;;;;;;;24.63;15.80;;;4.80;99.90;;;;;;5007666;28;20147;-78
2022/12/03 04:06:26;;;;;;;25.98;15.10;;;4.50;99.90;;;;;;5009587;28;20072;-78
2022/12/03 04:08:52;;;;;;;21.95;15.63;;;5.30;99.90;;;;;;5015495;28;20220;-79
2022/12/03 04:14:02;;;;;;;23.30;15.18;;;4.70;99.90;;;;;;5017916;28;20119;-78
2022/12/03 04:16:28;;;;;;;25.60;16.38;;;4.30;99.90;;;;;;4997689;28;20067;-78
2022/12/03 04:18:53;;;;;;;20.70;15.43;;;4.20;99.90;;;;;;5013706;28;20797;-78
2022/12/03 04:24:08;;;;;;;23.13;15.13;;;4.30;99.90;;;;;;5015602;28;20073;-78
2022/12/03 04:29:19;;;;;;;23.30;15.85;;;4.30;99.90;;;;;;5012956;28;20540;-77
2022/12/03 04:37:14;;;;;;;22.80;15.15;;;4.30;99.90;;;;;;5005439;28;20069;-79
2022/12/03 04:39:40;;;;;;;22.67;15.07;;;5.20;99.90;;;;;;5003412;28;20053;-77
2022/12/03 04:42:06;;;;;;;21.30;14.88;;;4.30;99.90;;;;;;5017022;28;20842;-78
2022/12/03 04:44:34;;;;;;;20.40;14.85;;;4.20;99.90;;;;;;5008219;28;20127;-78
2022/12/03 04:47:01;;;;;;;22.90;15.10;;;4.30;99.90;;;;;;5010315;28;20053;-78
2022/12/03 04:49:27;;;;;;;25.10;15.88;;;4.20;99.90;;;;;;5018826;28;20045;-78
2022/12/03 04:51:52;;;;;;;17.95;14.43;;;4.30;99.90;;;;;;5015366;28;20085;-78
2022/12/03 04:54:18;;;;;;;24.13;16.02;;;5.30;99.90;;;;;;5013673;28;20092;-78
2022/12/03 04:56:44;;;;;;;24.05;16.92;;;4.20;99.90;;;;;;5018780;28;20049;-77
2022/12/03 04:59:10;;;;;;;22.73;15.55;;;4.20;99.90;;;;;;5021468;28;20073;-78
2022/12/03 05:01:36;;;;;;;21.25;15.48;;;4.20;99.90;;;;;;5019094;28;20842;-78
2022/12/03 05:04:01;;;;;;;21.45;14.55;;;4.60;99.90;;;;;;5010530;28;20049;-78
2022/12/03 05:06:27;;;;;;;23.65;15.02;;;4.10;99.90;;;;;;5031149;28;20056;-78
2022/12/03 05:08:53;;;;;;;23.27;16.23;;;4.70;99.90;;;;;;5018440;28;20056;-78
2022/12/03 05:11:18;;;;;;;20.30;14.63;;;5.40;99.90;;;;;;5010480;28;20061;-77
2022/12/03 05:13:44;;;;;;;22.45;15.93;;;4.50;99.90;;;;;;5021632;28;20147;-78
2022/12/03 05:16:09;;;;;;;19.40;14.90;;;4.20;99.90;;;;;;5012094;28;20050;-77
2022/12/03 05:18:35;;;;;;;23.88;16.15;;;4.10;99.90;;;;;;5018665;28;20052;-77
2022/12/03 05:21:01;;;;;;;22.55;16.08;;;4.10;99.90;;;;;;5021032;28;20834;-78
2022/12/03 05:23:27;;;;;;;22.17;16.02;;;4.10;99.90;;;;;;5019488;28;20795;-77
2022/12/03 05:25:52;;;;;;;23.38;15.75;;;4.10;99.90;;;;;;5010206;28;20549;-77
2022/12/03 05:28:21;;;;;;;22.63;15.00;;;4.10;99.90;;;;;;5010600;28;20200;-77
2022/12/03 05:30:46;;;;;;;24.17;15.82;;;4.10;99.90;;;;;;5014815;28;20763;-78
2022/12/03 05:33:12;;;;;;;23.98;16.38;;;4.10;99.90;;;;;;5018003;28;20053;-78
2022/12/03 05:35:38;;;;;;;22.50;15.15;;;4.40;99.90;;;;;;5017541;28;20057;-77
2022/12/03 05:38:04;;;;;;;21.05;14.45;;;4.50;99.90;;;;;;5011155;28;20080;-77
2022/12/03 05:40:29;;;;;;;22.83;16.98;;;5.10;99.90;;;;;;5021375;28;20040;-78
2022/12/03 05:43:00;;;;;;;26.60;16.52;;;4.00;99.90;;;;;;5025511;28;20045;-77
2022/12/03 05:45:31;;;;;;;23.50;14.80;;;4.00;99.90;;;;;;5015232;28;20081;-77
2022/12/03 05:47:58;;;;;;;24.88;16.08;;;4.00;99.90;;;;;;5011590;28;20043;-78
2022/12/03 05:50:28;;;;;;;27.35;16.90;;;4.30;99.90;;;;;;5017222;28;20042;-76
2022/12/03 05:52:54;;;;;;;22.98;14.27;;;4.00;99.90;;;;;;5013180;28;20057;-77
2022/12/03 05:55:19;;;;;;;20.35;15.30;;;3.50;99.90;;;;;;5021908;28;20088;-77
2022/12/03 05:57:46;;;;;;;18.52;12.85;;;3.90;99.90;;;;;;5009216;28;20103;-76
2022/12/03 06:00:19;;;;;;;24.38;15.95;;;4.40;99.90;;;;;;5011190;28;20048;-76
2022/12/03 06:02:45;;;;;;;24.27;15.88;;;3.90;99.90;;;;;;5006776;28;20372;-77
2022/12/03 06:05:12;;;;;;;21.33;14.55;;;4.20;99.90;;;;;;5005068;28;20056;-77
2022/12/03 06:07:38;;;;;;;24.02;15.23;;;3.90;99.90;;;;;;5002528;28;20127;-76
2022/12/03 06:10:05;;;;;;;22.25;14.73;;;3.90;99.90;;;;;;5008144;28;20045;-76
2022/12/03 06:12:31;;;;;;;26.05;15.48;;;3.90;99.90;;;;;;5005419;28;20045;-76
2022/12/03 06:14:58;;;;;;;21.42;15.10;;;4.50;99.90;;;;;;5010782;28;20807;-76
2022/12/03 06:17:24;;;;;;;17.52;13.80;;;3.90;99.90;;;;;;5006711;28;20059;-76
2022/12/03 06:19:50;;;;;;;22.35;14.55;;;3.90;99.90;;;;;;5000397;28;20045;-77
2022/12/03 06:22:15;;;;;;;23.95;15.18;;;3.80;99.90;;;;;;5011298;28;20454;-76
2022/12/03 06:24:41;;;;;;;24.45;14.63;;;3.80;99.90;;;;;;5002329;28;20099;-76
2022/12/03 06:27:07;;;;;;;19.40;14.35;;;4.60;99.90;;;;;;5019814;28;20053;-76
2022/12/03 06:29:32;;;;;;;19.92;14.52;;;4.70;99.90;;;;;;5005436;28;20050;-77
2022/12/03 06:31:58;;;;;;;24.15;15.05;;;4.30;99.90;;;;;;5006130;28;20775;-76
2022/12/03 06:34:23;;;;;;;22.08;16.08;;;3.80;99.90;;;;;;5005913;28;20058;-76
2022/12/03 06:36:49;;;;;;;21.92;15.30;;;3.70;99.90;;;;;;5005721;28;20080;-76
2022/12/03 06:39:16;;;;;;;23.30;15.20;;;3.80;99.90;;;;;;5007239;28;20934;-76
2022/12/03 06:41:41;;;;;;;22.60;16.45;;;4.30;99.90;;;;;;5005025;28;20127;-76
2022/12/03 06:44:07;;;;;;;23.10;14.90;;;3.70;99.90;;;;;;5011082;28;20154;-76
2022/12/03 06:46:33;;;;;;;24.42;14.55;;;4.30;99.90;;;;;;5012359;28;20188;-77
2022/12/03 06:48:59;;;;;;;26.05;14.25;;;4.50;99.90;;;;;;5010827;28;20042;-76
2022/12/03 06:51:25;;;;;;;20.10;14.23;;;4.20;99.90;;;;;;5006043;28;20065;-76
2022/12/03 06:53:51;;;;;;;24.63;15.18;;;3.70;99.90;;;;;;5004791;28;20041;-77
2022/12/03 06:56:16;;;;;;;24.42;16.98;;;3.70;99.90;;;;;;5005836;28;20850;-76
2022/12/03 06:58:42;;;;;;;19.13;13.65;;;4.20;99.90;;;;;;5004730;28;20092;-76
2022/12/03 07:01:08;;;;;;;22.65;13.23;;;3.70;99.90;;;;;;5021593;28;20058;-77
2022/12/03 07:03:33;;;;;;;27.08;15.15;;;3.60;99.90;;;;;;5008444;28;20119;-78
2022/12/03 07:05:59;;;;;;;22.23;15.23;;;3.60;99.90;;;;;;5003176;28;20391;-77
2022/12/03 07:08:25;;;;;;;21.73;15.88;;;3.60;99.90;;;;;;5008238;28;20054;-76
2022/12/03 07:10:50;;;;;;;26.30;15.18;;;3.60;99.90;;;;;;4999752;28;20045;-78
2022/12/03 07:13:16;;;;;;;21.90;14.95;;;3.60;99.90;;;;;;5003916;28;20052;-76
2022/12/03 07:15:41;;;;;;;23.27;15.38;;;3.60;99.90;;;;;;5001512;28;20111;-77
2022/12/03 07:18:07;;;;;;;24.63;16.45;;;3.60;99.90;;;;;;5004817;28;20147;-76
2022/12/03 07:20:33;;;;;;;23.40;15.65;;;4.00;99.90;;;;;;5002501;28;20077;-76
2022/12/03 07:22:58;;;;;;;27.60;15.82;;;4.10;99.90;;;;;;5006932;28;20050;-75
2022/12/03 07:25:24;;;;;;;24.30;15.98;;;3.60;99.90;;;;;;5014599;28;20107;-76
2022/12/03 07:27:50;;;;;;;25.15;16.08;;;3.60;99.90;;;;;;5005837;28;20049;-78
2022/12/03 07:30:16;;;;;;;25.50;16.25;;;3.50;99.90;;;;;;5014699;28;20186;-76
2022/12/03 07:32:42;;;;;;;23.52;15.60;;;3.50;99.90;;;;;;5010256;28;20045;-77
2022/12/03 07:35:08;;;;;;;26.38;16.70;;;3.50;99.90;;;;;;5004701;28;20060;-77
2022/12/03 07:37:34;;;;;;;22.40;15.88;;;3.50;99.90;;;;;;5006295;28;20057;-78
2022/12/03 07:39:59;;;;;;;23.42;15.80;;;4.70;99.90;;;;;;5010142;28;20639;-77
2022/12/03 07:42:25;;;;;;;25.63;14.80;;;3.50;99.90;;;;;;5015648;28;21023;-77
2022/12/03 07:44:51;;;;;;;22.77;15.63;;;4.40;99.90;;;;;;5013005;28;20055;-77
2022/12/03 07:47:17;;;;;;;23.33;15.85;;;3.50;99.90;;;;;;5009512;28;20056;-78
2022/12/03 07:49:43;;;;;;;26.10;16.73;;;4.00;99.90;;;;;;5014759;28;20566;-77
2022/12/03 07:52:08;;;;;;;28.77;16.05;;;3.40;99.90;;;;;;5010099;28;20041;-77
2022/12/03 07:54:34;;;;;;;25.70;16.77;;;3.40;99.90;;;;;;5014919;28;20780;-77
2022/12/03 07:57:00;;;;;;;24.80;16.88;;;3.40;99.90;;;;;;5014419;28;20048;-76
2022/12/03 07:59:26;;;;;;;24.33;17.05;;;3.60;99.90;;;;;;5012865;28;20104;-77
2022/12/03 08:01:52;;;;;;;25.55;17.30;;;3.40;99.90;;;;;;5010632;28;20119;-76
2022/12/03 08:04:19;;;;;;;29.10;18.55;;;4.30;99.90;;;;;;5008982;28;20054;-76
2022/12/03 08:06:46;;;;;;;26.52;17.58;;;3.40;99.90;;;;;;5005894;28;20482;-77
2022/12/03 08:09:11;;;;;;;27.00;16.67;;;3.90;99.90;;;;;;5009783;28;20195;-79
2022/12/03 08:11:37;;;;;;;27.38;17.27;;;3.40;99.90;;;;;;5013941;28;20509;-77
2022/12/03 08:14:15;;;;;;;26.08;16.33;;;3.80;99.90;;;;;;5012906;28;20049;-81
2022/12/03 08:16:42;;;;;;;30.60;17.88;;;3.40;99.90;;;;;;5016951;28;20490;-77
2022/12/03 08:19:14;;;;;;;26.75;17.88;;;4.10;99.90;;;;;;5008772;28;20054;-78
2022/12/03 08:21:40;;;;;;;30.92;19.42;;;4.20;99.90;;;;;;5017601;28;20116;-79
2022/12/03 08:24:18;;;;;;;29.13;17.88;;;4.40;99.90;;;;;;5021939;28;20061;-78
2022/12/03 08:26:46;;;;;;;30.08;17.85;;;3.30;99.90;;;;;;5019277;28;20118;-78
2022/12/03 08:29:15;;;;;;;33.20;19.38;;;3.30;99.90;;;;;;5019177;28;20085;-77
2022/12/03 08:31:42;;;;;;;25.58;17.80;;;3.30;99.90;;;;;;5019388;28;20053;-78
2022/12/03 08:34:23;;;;;;;29.10;18.58;;;3.20;99.90;;;;;;5021952;28;20045;-78
2022/12/03 08:36:54;;;;;;;28.77;16.95;;;3.20;99.90;;;;;;5013462;28;20056;-78
2022/12/03 08:39:36;;;;;;;30.88;17.50;;;3.30;99.90;;;;;;5021322;28;20052;-78
2022/12/03 08:44:55;;;;;;;30.43;15.87;;;3.10;99.90;;;;;;5015191;28;20065;-77
2022/12/03 08:47:22;;;;;;;27.75;18.42;;;3.80;99.90;;;;;;5018353;28;20053;-78
2022/12/03 08:50:12;;;;;;;29.88;17.58;;;3.10;99.90;;;;;;5009336;28;20033;-78
2022/12/03 08:52:38;;;;;;;26.98;17.45;;;3.10;99.90;;;;;;5017819;28;20053;-78
2022/12/03 08:55:34;;;;;;;27.33;17.00;;;3.10;99.90;;;;;;5021644;28;20057;-79
2022/12/03 08:58:13;;;;;;;25.33;16.13;;;3.10;99.90;;;;;;5009259;28;20759;-78
2022/12/03 09:00:41;;;;;;;26.65;17.40;;;3.10;99.90;;;;;;5012854;28;20045;-79
2022/12/03 09:03:13;;;;;;;31.27;19.80;;;3.10;99.90;;;;;;5019541;28;20053;-79
2022/12/03 09:05:39;;;;;;;34.28;20.08;;;4.40;99.90;;;;;;5017139;28;20140;-78
2022/12/03 09:08:05;;;;;;;27.30;19.10;;;3.00;99.90;;;;;;5015448;28;20130;-78
2022/12/03 09:10:30;;;;;;;27.55;18.92;;;3.00;99.90;;;;;;5022438;28;20811;-78
2022/12/03 09:12:56;;;;;;;30.33;19.05;;;3.70;99.90;;;;;;5005216;28;20052;-78
2022/12/03 09:15:22;;;;;;;25.17;18.20;;;3.00;99.90;;;;;;5016032;28;20056;-77
2022/12/03 09:17:48;;;;;;;30.58;20.00;;;3.10;99.90;;;;;;5018574;28;20038;-78
2022/12/03 09:20:13;;;;;;;30.80;19.67;;;3.00;99.90;;;;;;5015250;28;20046;-79
2022/12/03 09:22:39;;;;;;;28.73;19.10;;;3.10;99.90;;;;;;5008172;28;20610;-78
2022/12/03 09:25:06;;;;;;;29.73;19.13;;;3.00;99.90;;;;;;5021173;28;20061;-78
2022/12/03 09:27:31;;;;;;;28.80;16.70;;;3.10;99.90;;;;;;5017771;28;20065;-78
2022/12/03 09:29:57;;;;;;;24.55;18.45;;;3.50;99.90;;;;;;5020701;28;20120;-77
2022/12/03 09:32:23;;;;;;;31.77;18.65;;;3.30;99.90;;;;;;5016451;28;20042;-78
2022/12/03 09:34:48;;;;;;;32.67;20.05;;;3.10;99.90;;;;;;5021250;28;20049;-78
2022/12/03 09:37:15;;;;;;;28.80;17.75;;;3.10;99.90;;;;;;5018239;28;20136;-77
2022/12/03 09:39:41;;;;;;;28.13;18.70;;;3.10;99.90;;;;;;5016644;28;20045;-78
2022/12/03 09:42:07;;;;;;;26.42;17.65;;;3.60;99.90;;;;;;5012545;28;20052;-78
2022/12/03 09:44:34;;;;;;;26.55;17.17;;;3.20;99.90;;;;;;5016825;28;20044;-80
2022/12/03 09:47:04;;;;;;;30.80;18.05;;;3.10;99.90;;;;;;5013116;28;20107;-78
2022/12/03 09:49:31;;;;;;;27.67;16.02;;;4.00;99.90;;;;;;5020102;28;20125;-77
2022/12/03 09:51:59;;;;;;;30.50;18.88;;;3.10;99.90;;;;;;5016806;28;20041;-78
2022/12/03 09:54:27;;;;;;;35.53;19.33;;;3.30;99.90;;;;;;5020751;28;20568;-77
2022/12/03 09:56:54;;;;;;;31.48;16.75;;;3.10;99.90;;;;;;5017816;28;20053;-79
2022/12/03 09:59:23;;;;;;;31.05;19.30;;;3.00;99.90;;;;;;5018624;28;20041;-78
2022/12/03 10:01:49;;;;;;;30.92;19.60;;;3.00;99.90;;;;;;5019980;28;20095;-78
2022/12/03 10:04:14;;;;;;;33.72;19.45;;;3.50;99.90;;;;;;5016151;28;20034;-75
2022/12/03 10:06:40;;;;;;;29.80;19.48;;;3.70;99.90;;;;;;5018071;28;20053;-77
2022/12/03 10:09:08;;;;;;;31.75;18.15;;;3.30;99.90;;;;;;5018605;28;20099;-78
2022/12/03 10:11:35;;;;;;;31.52;19.55;;;3.10;99.90;;;;;;5012004;28;20050;-77
2022/12/03 10:14:00;;;;;;;26.80;18.00;;;3.70;99.90;;;;;;5019844;28;20041;-78
2022/12/03 10:16:29;;;;;;;35.33;20.85;;;3.40;99.90;;;;;;5017896;28;20456;-77
2022/12/03 10:18:58;;;;;;;33.30;19.65;;;3.30;99.90;;;;;;5026267;28;20038;-77
2022/12/03 10:21:35;;;;;;;30.80;18.92;;;3.50;99.90;;;;;;5018990;28;20045;-76
2022/12/03 10:24:21;;;;;;;28.92;16.80;;;3.60;99.90;;;;;;5017417;28;20058;-79
2022/12/03 10:26:48;;;;;;;25.27;18.25;;;3.20;99.90;;;;;;5015892;28;20215;-76
2022/12/03 10:29:18;;;;;;;34.22;20.95;;;3.20;99.90;;;;;;5020980;28;20115;-79
2022/12/03 10:31:44;;;;;;;33.35;17.63;;;3.50;99.90;;;;;;5007900;28;20417;-78
2022/12/03 10:34:10;;;;;;;31.15;18.65;;;3.20;99.90;;;;;;5016706;28;20049;-77
2022/12/03 10:36:36;;;;;;;28.65;18.55;;;3.80;99.90;;;;;;5023928;28;20145;-78
2022/12/03 10:39:15;;;;;;;30.15;19.77;;;3.20;99.90;;;;;;5014286;28;20125;-78
2022/12/03 10:41:42;;;;;;;31.80;20.00;;;3.20;99.90;;;;;;5017003;28;20060;-77
2022/12/03 10:44:21;;;;;;;30.95;17.67;;;3.30;99.90;;;;;;5012853;28;20615;-76
2022/12/03 10:47:11;;;;;;;29.63;18.02;;;3.30;99.90;;;;;;5007048;28;20054;-77
2022/12/03 10:49:38;;;;;;;31.95;20.88;;;3.30;99.90;;;;;;5017439;28;20053;-77
2022/12/03 10:52:05;;;;;;;29.30;18.55;;;3.20;99.90;;;;;;5014995;28;20124;-77
2022/12/03 10:54:34;;;;;;;34.72;19.08;;;4.50;99.90;;;;;;5017833;28;20042;-78
2022/12/03 10:57:01;;;;;;;30.30;19.73;;;3.30;99.90;;;;;;5020556;28;20053;-78
2022/12/03 10:59:32;;;;;;;31.63;20.08;;;4.50;99.90;;;;;;5019332;28;20124;-77
2022/12/03 11:01:58;;;;;;;32.85;19.13;;;3.30;99.90;;;;;;5018308;28;20529;-78
2022/12/03 11:04:32;;;;;;;36.80;21.33;;;3.30;99.90;;;;;;5017377;28;20048;-78
2022/12/03 11:07:00;;;;;;;33.58;18.90;;;3.30;99.90;;;;;;5017764;28;20049;-78
2022/12/03 11:09:28;;;;;;;33.10;20.08;;;3.30;99.90;;;;;;5027882;28;20041;-78
2022/12/03 11:11:54;;;;;;;30.83;19.13;;;3.40;99.90;;;;;;5008425;28;20893;-77
2022/12/03 11:14:55;;;;;;;32.70;20.73;;;3.20;99.90;;;;;;5018356;28;20156;-77
2022/12/03 11:17:39;;;;;;;28.40;18.63;;;3.30;99.90;;;;;;5018604;28;20068;-77
2022/12/03 11:20:28;;;;;;;31.08;16.33;;;3.30;99.90;;;;;;5017912;28;20049;-77
2022/12/03 11:22:55;;;;;;;33.63;20.73;;;3.30;99.90;;;;;;4999724;28;20057;-77
2022/12/03 11:25:24;;;;;;;33.80;19.02;;;3.30;99.90;;;;;;5015885;28;20123;-78
2022/12/03 11:28:14;;;;;;;31.05;20.05;;;4.30;99.90;;;;;;5017187;28;20053;-78
2022/12/03 11:30:55;;;;;;;35.72;19.15;;;3.30;99.90;;;;;;5017970;28;20615;-77
2022/12/03 11:33:39;;;;;;;31.50;19.67;;;4.40;99.90;;;;;;5014393;28;20513;-77
2022/12/03 11:36:05;;;;;;;28.20;16.40;;;3.30;99.90;;;;;;5018309;28;20057;-77
2022/12/03 11:38:36;;;;;;;33.28;19.13;;;3.20;99.90;;;;;;5013223;28;20131;-77
2022/12/03 11:41:11;;;;;;;30.65;19.27;;;4.70;99.90;;;;;;5015806;28;20087;-78
2022/12/03 11:43:52;;;;;;;32.47;20.83;;;3.30;99.90;;;;;;5025866;28;20051;-78
2022/12/03 11:46:26;;;;;;;32.25;21.10;;;3.20;99.90;;;;;;5013322;28;20049;-77
2022/12/03 11:48:54;;;;;;;32.33;19.52;;;3.30;99.90;;;;;;5016563;28;20064;-76
2022/12/03 11:51:26;;;;;;;33.70;19.20;;;3.20;99.90;;;;;;5016543;28;20060;-79
2022/12/03 11:53:56;;;;;;;30.88;19.63;;;3.20;99.90;;;;;;5017299;28;20131;-80
2022/12/03 11:56:27;;;;;;;30.02;20.20;;;3.20;99.90;;;;;;5017087;28;20064;-79
2022/12/03 11:59:01;;;;;;;32.15;19.83;;;3.30;99.90;;;;;;5007348;28;20045;-80
2022/12/03 12:01:35;;;;;;;31.58;18.27;;;3.30;99.90;;;;;;5017156;28;20049;-78
2022/12/03 12:04:01;;;;;;;32.25;20.52;;;3.30;99.90;;;;;;5008315;28;20049;-79
2022/12/03 12:06:26;;;;;;;32.30;19.85;;;3.80;99.90;;;;;;5014758;28;20114;-78
2022/12/03 12:08:57;;;;;;;33.47;20.88;;;3.30;99.90;;;;;;5015613;28;20042;-79
2022/12/03 12:11:33;;;;;;;29.73;19.02;;;3.40;99.90;;;;;;5008423;28;20573;-78
2022/12/03 12:14:04;;;;;;;30.67;19.15;;;3.40;99.90;;;;;;5015390;28;20080;-79
2022/12/03 12:16:39;;;;;;;28.83;18.02;;;3.40;99.90;;;;;;5015388;28;20154;-79
2022/12/03 12:19:30;;;;;;;32.88;17.38;;;3.40;99.90;;;;;;5014527;28;20509;-79
2022/12/03 12:22:11;;;;;;;30.45;19.52;;;3.40;99.90;;;;;;5027153;28;20053;-78
2022/12/03 12:24:39;;;;;;;29.17;19.02;;;3.30;99.90;;;;;;5009385;28;20576;-78
2022/12/03 12:27:07;;;;;;;29.63;18.35;;;3.40;99.90;;;;;;5026799;28;20071;-79
2022/12/03 12:29:34;;;;;;;31.83;19.33;;;3.50;99.90;;;;;;5017162;28;20076;-79
2022/12/03 12:32:09;;;;;;;23.50;17.92;;;3.30;99.90;;;;;;5016582;28;20140;-78
2022/12/03 12:34:47;;;;;;;32.42;20.83;;;3.40;99.90;;;;;;5017827;28;20776;-78
2022/12/03 12:37:33;;;;;;;31.00;18.60;;;3.70;99.90;;;;;;5014815;28;20069;-78
2022/12/03 12:40:00;;;;;;;32.05;17.88;;;3.40;99.90;;;;;;5016899;28;20045;-78
2022/12/03 12:42:26;;;;;;;32.03;17.30;;;3.90;99.90;;;;;;5016740;28;20780;-77
2022/12/03 12:44:53;;;;;;;26.67;19.23;;;3.80;99.90;;;;;;5021282;28;20057;-77
2022/12/03 12:47:19;;;;;;;26.92;17.55;;;3.40;99.90;;;;;;5021818;28;20087;-77
2022/12/03 12:49:44;;;;;;;31.08;17.25;;;4.40;99.90;;;;;;5021288;28;20851;-79
2022/12/03 12:52:14;;;;;;;31.25;19.38;;;4.10;99.90;;;;;;5023915;28;20179;-78
2022/12/03 12:54:40;;;;;;;30.45;19.70;;;3.90;99.90;;;;;;5010046;28;20057;-78
2022/12/03 12:57:15;;;;;;;28.45;16.95;;;3.90;99.90;;;;;;5014777;28;20080;-77
2022/12/03 12:59:41;;;;;;;33.88;19.58;;;3.30;99.90;;;;;;5017132;28;20045;-76